createdAt,value
2017-02-18T00:01:37.012Z,1023.64
2017-02-18T00:02:29.996Z,1023.61
2017-02-18T00:03:12.404Z,1023.62
2017-02-18T00:03:55.006Z,1023.6
2017-02-18T00:04:50.995Z,1023.66
2017-02-18T00:05:31.518Z,1023.6
2017-02-18T00:06:16.626Z,1023.7
2017-02-18T00:07:03.892Z,1023.73
2017-02-18T00:07:44.361Z,1023.64
2017-02-18T00:08:29.729Z,1023.64
2017-02-18T00:09:19.527Z,1023.63
2017-02-18T00:10:03.711Z,1023.6
2017-02-18T00:10:44.869Z,1023.67
2017-02-18T00:11:29.114Z,1023.67
2017-02-18T00:12:10.384Z,1023.64
2017-02-18T00:12:53.223Z,1023.68
2017-02-18T00:13:36.308Z,1023.67
2017-02-18T00:14:21.504Z,1023.68
2017-02-18T00:15:06.619Z,1023.7
2017-02-18T00:15:49.495Z,1023.66
2017-02-18T00:16:30.505Z,1023.67
2017-02-18T00:17:14.625Z,1023.7
2017-02-18T00:17:55.113Z,1023.75
2017-02-18T00:18:36.314Z,1023.74
2017-02-18T00:19:17.338Z,1023.78
2017-02-18T00:20:00.304Z,1023.75
2017-02-18T00:20:40.784Z,1023.71
2017-02-18T00:21:22.123Z,1023.66
2017-02-18T00:22:03.229Z,1023.67
2017-02-18T00:22:43.745Z,1023.67
2017-02-18T00:23:28.483Z,1023.67
2017-02-18T00:24:09.012Z,1023.69
2017-02-18T00:24:51.386Z,1023.71
2017-02-18T00:25:33.997Z,1023.71
2017-02-18T00:26:17.211Z,1023.74
2017-02-18T00:27:04.125Z,1023.73
2017-02-18T00:29:34.641Z,1023.72
2017-02-18T00:30:16.598Z,1023.71
2017-02-18T00:30:57.806Z,1023.73
2017-02-18T00:31:56.809Z,1023.72
2017-02-18T00:37:35.069Z,1023.75
2017-02-18T00:38:16.281Z,1023.76
2017-02-18T00:40:33.915Z,1023.75
2017-02-18T00:41:14.463Z,1023.8
2017-02-18T00:43:43.813Z,1023.76
2017-02-18T00:44:25.188Z,1023.74
2017-02-18T00:46:57.671Z,1023.76
2017-02-18T00:47:39.302Z,1023.76
2017-02-18T00:48:22.486Z,1023.84
2017-02-18T00:49:03.660Z,1023.83
2017-02-18T00:49:44.806Z,1023.81
2017-02-18T00:50:27.069Z,1023.77
2017-02-18T00:51:08.395Z,1023.82
2017-02-18T00:55:13.954Z,1023.73
2017-02-18T00:55:54.556Z,1023.74
2017-02-18T00:56:35.748Z,1023.73
2017-02-18T00:57:16.260Z,1023.76
2017-02-18T00:57:56.702Z,1023.76
2017-02-18T00:58:37.187Z,1023.73
2017-02-18T01:00:51.911Z,1023.78
2017-02-18T01:01:33.204Z,1023.78
2017-02-18T01:02:15.477Z,1023.77
2017-02-18T01:04:30.265Z,1023.78
2017-02-18T01:09:49.173Z,1023.8
2017-02-18T01:10:30.132Z,1023.81
2017-02-18T01:11:12.289Z,1023.79
2017-02-18T01:11:53.462Z,1023.79
2017-02-18T01:12:35.645Z,1023.86
2017-02-18T01:13:19.895Z,1023.85
2017-02-18T01:14:01.054Z,1023.82
2017-02-18T01:14:44.673Z,1023.78
2017-02-18T01:15:25.118Z,1023.81
2017-02-18T01:16:06.528Z,1023.82
2017-02-18T01:16:47.043Z,1023.84
2017-02-18T01:17:28.163Z,1023.81
2017-02-18T01:18:09.270Z,1023.87
2017-02-18T01:18:52.148Z,1023.83
2017-02-18T01:19:33.450Z,1023.8
2017-02-18T01:21:49.187Z,1023.87
2017-02-18T01:22:30.831Z,1023.87
2017-02-18T01:23:11.345Z,1023.83
2017-02-18T01:23:52.627Z,1023.84
2017-02-18T01:24:35.823Z,1023.85
2017-02-18T01:25:16.307Z,1023.87
2017-02-18T01:25:58.611Z,1023.88
2017-02-18T01:26:39.920Z,1023.88
2017-02-18T01:27:20.403Z,1023.91
2017-02-18T01:28:01.648Z,1023.9
2017-02-18T01:28:43.021Z,1023.91
2017-02-18T01:29:24.951Z,1023.92
2017-02-18T01:30:06.052Z,1023.99
2017-02-18T01:30:48.569Z,1023.96
2017-02-18T01:31:29.811Z,1023.98
2017-02-18T01:32:10.344Z,1023.98
2017-02-18T01:32:50.771Z,1024
2017-02-18T01:33:32.117Z,1024.01
2017-02-18T01:34:15.945Z,1024.01
2017-02-18T01:34:56.459Z,1024.03
2017-02-18T01:35:37.613Z,1024
2017-02-18T01:36:20.837Z,1024
2017-02-18T01:37:02.956Z,1024.08
2017-02-18T01:37:44.802Z,1024.07
2017-02-18T01:38:25.369Z,1024.06
2017-02-18T01:39:08.318Z,1024.08
2017-02-18T01:39:50.304Z,1024.03
2017-02-18T01:40:31.555Z,1024.04
2017-02-18T01:41:12.706Z,1023.99
2017-02-18T01:41:56.427Z,1024
2017-02-18T01:42:38.318Z,1024.05
2017-02-18T01:43:19.621Z,1023.98
2017-02-18T01:44:01.026Z,1024.02
2017-02-18T01:44:41.502Z,1024.01
2017-02-18T01:45:22.700Z,1024
2017-02-18T01:46:04.066Z,1024.04
2017-02-18T01:46:45.852Z,1024.01
2017-02-18T01:47:29.223Z,1024.06
2017-02-18T01:48:13.603Z,1024.05
2017-02-18T01:48:54.741Z,1024.08
2017-02-18T01:49:37.062Z,1024.08
2017-02-18T01:50:18.801Z,1024.11
2017-02-18T01:50:59.841Z,1024.07
2017-02-18T01:51:40.324Z,1024.06
2017-02-18T01:52:23.540Z,1024.1
2017-02-18T01:53:06.617Z,1024.15
2017-02-18T01:53:48.520Z,1024.08
2017-02-18T01:54:30.446Z,1024.14
2017-02-18T01:55:10.950Z,1024.15
2017-02-18T01:55:53.811Z,1024.17
2017-02-18T01:56:35.113Z,1024.14
2017-02-18T01:57:19.802Z,1024.11
2017-02-18T01:58:00.943Z,1024.11
2017-02-18T01:58:42.205Z,1024.15
2017-02-18T01:59:24.308Z,1024.15
2017-02-18T02:00:07.313Z,1024.2
2017-02-18T02:00:51.444Z,1024.23
2017-02-18T02:01:33.539Z,1024.21
2017-02-18T02:02:14.930Z,1024.23
2017-02-18T02:02:59.935Z,1024.21
2017-02-18T02:03:41.207Z,1024.21
2017-02-18T02:04:27.816Z,1024.2
2017-02-18T02:05:08.286Z,1024.2
2017-02-18T02:05:49.305Z,1024.22
2017-02-18T02:06:32.443Z,1024.18
2017-02-18T02:07:14.563Z,1024.18
2017-02-18T02:08:00.957Z,1024.17
2017-02-18T02:08:44.138Z,1024.14
2017-02-18T02:09:29.832Z,1024.14
2017-02-18T02:10:10.309Z,1024.16
2017-02-18T02:10:50.790Z,1024.2
2017-02-18T02:11:33.827Z,1024.16
2017-02-18T02:12:14.299Z,1024.15
2017-02-18T02:12:58.328Z,1024.12
2017-02-18T02:13:38.811Z,1024.13
2017-02-18T02:14:26.956Z,1024.14
2017-02-18T02:15:16.945Z,1024.13
2017-02-18T02:15:59.134Z,1024.1
2017-02-18T02:16:41.314Z,1024.12
2017-02-18T02:17:24.323Z,1024.04
2017-02-18T02:18:08.454Z,1024.04
2017-02-18T02:18:51.452Z,1024.08
2017-02-18T02:19:32.727Z,1024.05
2017-02-18T02:20:15.810Z,1024.05
2017-02-18T02:21:00.075Z,1024.03
2017-02-18T02:21:43.951Z,1024.05
2017-02-18T02:22:25.953Z,1024.08
2017-02-18T02:23:08.320Z,1024.03
2017-02-18T02:23:49.443Z,1024
2017-02-18T02:24:30.609Z,1024.04
2017-02-18T02:25:13.934Z,1024.07
2017-02-18T02:25:57.137Z,1024.06
2017-02-18T02:26:40.821Z,1024.03
2017-02-18T02:27:22.923Z,1024.02
2017-02-18T02:28:03.411Z,1024.05
2017-02-18T02:28:45.322Z,1024.03
2017-02-18T02:29:25.803Z,1024.01
2017-02-18T02:30:08.208Z,1024.02
2017-02-18T02:30:48.710Z,1024.05
2017-02-18T02:31:31.155Z,1024.02
2017-02-18T02:32:12.548Z,1024.06
2017-02-18T02:32:53.545Z,1024.04
2017-02-18T02:33:35.799Z,1024.06
2017-02-18T02:34:16.958Z,1024.02
2017-02-18T02:35:03.034Z,1024.04
2017-02-18T02:35:48.817Z,1024
2017-02-18T02:36:34.823Z,1024.03
2017-02-18T02:40:26.088Z,1024.08
2017-02-18T02:41:07.235Z,1024.01
2017-02-18T02:41:48.305Z,1024.04
2017-02-18T02:42:34.294Z,1024.03
2017-02-18T02:43:17.376Z,1024.01
2017-02-18T02:43:59.805Z,1024.01
2017-02-18T02:44:40.307Z,1023.97
2017-02-18T02:45:29.239Z,1023.93
2017-02-18T02:46:10.357Z,1023.99
2017-02-18T02:46:58.097Z,1023.95
2017-02-18T02:47:38.553Z,1023.99
2017-02-18T02:48:20.796Z,1023.97
2017-02-18T02:49:01.790Z,1023.97
2017-02-18T02:49:44.847Z,1023.97
2017-02-18T02:50:25.310Z,1023.95
2017-02-18T02:51:06.464Z,1023.97
2017-02-18T02:51:46.968Z,1023.96
2017-02-18T02:52:28.010Z,1023.94
2017-02-18T02:53:09.491Z,1023.99
2017-02-18T02:53:55.187Z,1024.03
2017-02-18T02:54:35.670Z,1024
2017-02-18T02:55:16.152Z,1024.04
2017-02-18T02:55:56.608Z,1024.02
2017-02-18T02:56:37.164Z,1024.05
2017-02-18T02:57:18.395Z,1024.07
2017-02-18T02:57:58.885Z,1024.04
2017-02-18T02:58:39.404Z,1024.02
2017-02-18T02:59:20.702Z,1024.04
2017-02-18T03:00:02.684Z,1024.13
2017-02-18T03:00:44.085Z,1024.03
2017-02-18T03:01:25.406Z,1024.09
2017-02-18T03:02:06.801Z,1024.05
2017-02-18T03:02:49.690Z,1024.05
2017-02-18T03:03:30.179Z,1023.98
2017-02-18T03:04:11.206Z,1024.01
2017-02-18T03:04:52.400Z,1024.08
2017-02-18T03:05:33.906Z,1024.01
2017-02-18T03:06:16.071Z,1023.97
2017-02-18T03:06:57.391Z,1024.04
2017-02-18T03:07:40.307Z,1023.93
2017-02-18T03:08:21.572Z,1023.99
2017-02-18T03:09:03.907Z,1023.94
2017-02-18T03:09:45.094Z,1023.98
2017-02-18T03:10:26.407Z,1024.02
2017-02-18T03:11:06.869Z,1023.98
2017-02-18T03:11:47.926Z,1023.96
2017-02-18T03:12:33.893Z,1023.95
2017-02-18T03:13:14.897Z,1023.99
2017-02-18T03:15:52.467Z,1024
2017-02-18T03:16:35.801Z,1023.97
2017-02-18T03:17:18.802Z,1024.01
2017-02-18T03:18:03.994Z,1023.95
2017-02-18T03:18:45.096Z,1023.94
2017-02-18T03:19:29.056Z,1023.9
2017-02-18T03:20:15.012Z,1024.02
2017-02-18T03:20:57.294Z,1023.97
2017-02-18T03:21:39.497Z,1023.9
2017-02-18T03:22:20.952Z,1023.93
2017-02-18T03:23:03.098Z,1023.98
2017-02-18T03:23:45.919Z,1023.91
2017-02-18T03:24:26.993Z,1024
2017-02-18T03:25:09.794Z,1023.98
2017-02-18T03:25:51.189Z,1023.99
2017-02-18T03:26:34.092Z,1024.05
2017-02-18T03:27:17.911Z,1024.02
2017-02-18T03:28:00.036Z,1023.98
2017-02-18T03:28:40.506Z,1024
2017-02-18T03:29:21.781Z,1023.98
2017-02-18T03:30:05.070Z,1024.03
2017-02-18T03:30:45.563Z,1023.97
2017-02-18T03:31:26.016Z,1023.96
2017-02-18T03:32:08.128Z,1023.94
2017-02-18T03:32:50.180Z,1024.02
2017-02-18T03:33:34.280Z,1023.97
2017-02-18T03:35:52.219Z,1024
2017-02-18T03:36:34.285Z,1023.97
2017-02-18T03:37:17.282Z,1023.99
2017-02-18T03:38:02.040Z,1023.98
2017-02-18T03:38:42.569Z,1023.97
2017-02-18T03:39:25.784Z,1023.98
2017-02-18T03:40:09.549Z,1023.94
2017-02-18T03:40:50.017Z,1023.99
2017-02-18T03:41:40.168Z,1024.02
2017-02-18T03:42:25.190Z,1023.95
2017-02-18T03:43:13.191Z,1024
2017-02-18T03:43:53.714Z,1023.97
2017-02-18T03:44:36.570Z,1024.01
2017-02-18T03:45:18.569Z,1024
2017-02-18T03:46:00.951Z,1024.02
2017-02-18T03:46:41.969Z,1023.97
2017-02-18T03:47:23.342Z,1024.03
2017-02-18T03:48:05.300Z,1023.99
2017-02-18T03:48:45.728Z,1023.99
2017-02-18T03:49:28.571Z,1023.99
2017-02-18T03:50:09.044Z,1024.04
2017-02-18T03:50:50.269Z,1024.01
2017-02-18T03:51:30.771Z,1024.01
2017-02-18T03:52:11.261Z,1024.07
2017-02-18T03:52:52.693Z,1024.06
2017-02-18T03:53:34.667Z,1024.04
2017-02-18T03:54:15.154Z,1024.06
2017-02-18T03:54:55.684Z,1024.06
2017-02-18T03:55:37.772Z,1024.03
2017-02-18T03:56:20.786Z,1024.03
2017-02-18T03:57:03.786Z,1024.05
2017-02-18T03:57:45.665Z,1024.06
2017-02-18T03:58:29.691Z,1024.08
2017-02-18T03:59:10.160Z,1024.07
2017-02-18T03:59:51.394Z,1024.09
2017-02-18T04:00:31.816Z,1024.09
2017-02-18T04:01:13.845Z,1024.12
2017-02-18T04:01:54.372Z,1024.11
2017-02-18T04:02:39.284Z,1024.12
2017-02-18T04:03:19.745Z,1024.11
2017-02-18T04:04:00.941Z,1024.12
2017-02-18T04:04:42.165Z,1024.17
2017-02-18T04:05:22.635Z,1024.19
2017-02-18T04:06:03.118Z,1024.14
2017-02-18T04:06:45.041Z,1024.15
2017-02-18T04:07:25.516Z,1024.17
2017-02-18T04:08:06.023Z,1024.19
2017-02-18T04:08:46.570Z,1024.22
2017-02-18T04:09:28.963Z,1024.19
2017-02-18T04:10:09.452Z,1024.19
2017-02-18T04:10:50.424Z,1024.19
2017-02-18T04:11:32.532Z,1024.27
2017-02-18T04:12:13.056Z,1024.21
2017-02-18T04:12:53.516Z,1024.18
2017-02-18T04:13:34.007Z,1024.28
2017-02-18T04:14:17.271Z,1024.24
2017-02-18T04:14:57.778Z,1024.26
2017-02-18T04:15:41.803Z,1024.21
2017-02-18T04:16:22.779Z,1024.24
2017-02-18T04:17:03.866Z,1024.25
2017-02-18T04:17:44.374Z,1024.33
2017-02-18T04:18:24.881Z,1024.29
2017-02-18T04:19:06.179Z,1024.25
2017-02-18T04:19:47.536Z,1024.3
2017-02-18T04:20:31.656Z,1024.28
2017-02-18T04:21:13.966Z,1024.37
2017-02-18T04:21:57.795Z,1024.28
2017-02-18T04:22:38.962Z,1024.36
2017-02-18T04:23:20.973Z,1024.31
2017-02-18T04:24:05.245Z,1024.32
2017-02-18T04:24:48.065Z,1024.38
2017-02-18T04:25:30.061Z,1024.37
2017-02-18T04:26:12.190Z,1024.41
2017-02-18T04:31:57.513Z,1024.5
2017-02-18T04:46:46.137Z,1024.53
2017-02-18T04:47:32.570Z,1024.58
2017-02-18T04:48:13.939Z,1024.56
2017-02-18T04:48:57.483Z,1024.58
2017-02-18T04:49:40.690Z,1024.52
2017-02-18T04:50:21.178Z,1024.54
2017-02-18T04:51:01.655Z,1024.56
2017-02-18T04:51:43.605Z,1024.61
2017-02-18T04:52:25.563Z,1024.62
2017-02-18T04:53:14.571Z,1024.69
2017-02-18T04:53:55.111Z,1024.55
2017-02-18T04:54:35.563Z,1024.57
2017-02-18T04:55:17.652Z,1024.65
2017-02-18T04:56:00.436Z,1024.54
2017-02-18T05:00:04.858Z,1024.61
2017-02-18T05:00:48.913Z,1024.58
2017-02-18T05:01:30.827Z,1024.59
2017-02-18T05:02:13.858Z,1024.61
2017-02-18T05:02:56.178Z,1024.6
2017-02-18T05:03:38.336Z,1024.61
2017-02-18T05:04:18.835Z,1024.61
2017-02-18T05:05:01.828Z,1024.58
2017-02-18T05:05:42.326Z,1024.57
2017-02-18T05:06:22.836Z,1024.64
2017-02-18T05:07:06.055Z,1024.63
2017-02-18T05:07:47.841Z,1024.61
2017-02-18T05:08:30.058Z,1024.63
2017-02-18T05:09:12.457Z,1024.64
2017-02-18T05:09:52.942Z,1024.69
2017-02-18T05:10:33.405Z,1024.67
2017-02-18T05:11:13.909Z,1024.66
2017-02-18T05:11:58.825Z,1024.6
2017-02-18T05:12:40.273Z,1024.64
2017-02-18T05:13:21.477Z,1024.68
2017-02-18T05:14:01.973Z,1024.6
2017-02-18T05:14:43.248Z,1024.66
2017-02-18T05:15:24.267Z,1024.62
2017-02-18T05:16:06.476Z,1024.78
2017-02-18T05:16:46.963Z,1024.69
2017-02-18T05:17:28.233Z,1024.71
2017-02-18T05:18:09.268Z,1024.71
2017-02-18T05:18:49.782Z,1024.65
2017-02-18T05:19:30.826Z,1024.69
2017-02-18T05:20:16.826Z,1024.73
2017-02-18T05:20:58.159Z,1024.76
2017-02-18T05:21:38.638Z,1024.74
2017-02-18T05:22:19.839Z,1024.68
2017-02-18T05:23:02.845Z,1024.67
2017-02-18T05:23:43.323Z,1024.74
2017-02-18T05:24:23.813Z,1024.75
2017-02-18T05:25:05.085Z,1024.66
2017-02-18T05:25:46.323Z,1024.71
2017-02-18T05:26:27.850Z,1024.67
2017-02-18T05:27:08.977Z,1024.66
2017-02-18T05:27:49.989Z,1024.72
2017-02-18T05:28:30.470Z,1024.71
2017-02-18T05:29:13.957Z,1024.62
2017-02-18T05:29:55.240Z,1024.74
2017-02-18T05:30:37.335Z,1024.68
2017-02-18T05:31:20.350Z,1024.68
2017-02-18T05:32:00.921Z,1024.66
2017-02-18T05:32:42.079Z,1024.77
2017-02-18T05:33:22.511Z,1024.69
2017-02-18T05:34:05.649Z,1024.74
2017-02-18T05:34:47.841Z,1024.66
2017-02-18T05:35:28.320Z,1024.7
2017-02-18T05:36:08.802Z,1024.72
2017-02-18T05:36:49.273Z,1024.69
2017-02-18T05:37:30.470Z,1024.7
2017-02-18T05:38:12.446Z,1024.68
2017-02-18T05:38:56.583Z,1024.71
2017-02-18T05:39:37.060Z,1024.72
2017-02-18T05:40:18.475Z,1024.66
2017-02-18T05:41:01.634Z,1024.66
2017-02-18T05:41:42.139Z,1024.68
2017-02-18T05:42:26.146Z,1024.68
2017-02-18T05:43:08.198Z,1024.67
2017-02-18T05:43:54.828Z,1024.72
2017-02-18T05:44:39.065Z,1024.62
2017-02-18T05:48:26.072Z,1024.74
2017-02-18T05:49:09.744Z,1024.7
2017-02-18T05:49:50.223Z,1024.81
2017-02-18T05:50:31.417Z,1024.77
2017-02-18T05:51:13.248Z,1024.75
2017-02-18T05:51:56.609Z,1024.79
2017-02-18T05:52:39.839Z,1024.73
2017-02-18T05:53:21.256Z,1024.79
2017-02-18T05:54:01.739Z,1024.77
2017-02-18T05:54:44.174Z,1024.75
2017-02-18T05:55:24.668Z,1024.78
2017-02-18T05:56:08.735Z,1024.81
2017-02-18T05:56:50.033Z,1024.86
2017-02-18T05:57:32.021Z,1024.81
2017-02-18T05:58:14.251Z,1024.77
2017-02-18T05:58:54.754Z,1024.8
2017-02-18T05:59:35.232Z,1024.81
2017-02-18T06:00:15.696Z,1024.92
2017-02-18T06:00:56.988Z,1024.85
2017-02-18T06:01:39.925Z,1024.81
2017-02-18T06:02:22.264Z,1024.83
2017-02-18T06:03:03.241Z,1024.96
2017-02-18T06:03:44.366Z,1024.93
2017-02-18T06:04:26.768Z,1024.85
2017-02-18T06:05:12.665Z,1024.9
2017-02-18T06:05:53.101Z,1024.92
2017-02-18T06:06:37.124Z,1024.83
2017-02-18T06:07:18.420Z,1024.89
2017-02-18T06:08:02.128Z,1024.93
2017-02-18T06:08:44.329Z,1024.9
2017-02-18T06:09:26.257Z,1024.9
2017-02-18T06:10:14.374Z,1024.92
2017-02-18T06:11:03.323Z,1024.9
2017-02-18T06:11:45.407Z,1024.91
2017-02-18T06:12:25.920Z,1024.96
2017-02-18T06:13:10.628Z,1024.94
2017-02-18T06:13:51.628Z,1024.82
2017-02-18T06:14:35.910Z,1024.89
2017-02-18T06:16:50.221Z,1024.97
2017-02-18T06:18:54.861Z,1024.96
2017-02-18T06:19:40.148Z,1024.9
2017-02-18T06:20:25.943Z,1025.02
2017-02-18T06:21:06.404Z,1025
2017-02-18T06:21:48.414Z,1024.92
2017-02-18T06:22:31.807Z,1024.91
2017-02-18T06:24:50.073Z,1024.96
2017-02-18T06:27:12.455Z,1025.02
2017-02-18T06:29:14.343Z,1025.03
2017-02-18T06:30:00.174Z,1024.97
2017-02-18T06:30:42.213Z,1025.1
2017-02-18T06:31:23.493Z,1024.99
2017-02-18T06:32:03.928Z,1025.05
2017-02-18T06:32:45.209Z,1025.01
2017-02-18T06:33:26.494Z,1025.03
2017-02-18T06:34:09.409Z,1025.07
2017-02-18T06:34:53.384Z,1024.97
2017-02-18T06:35:35.732Z,1024.99
2017-02-18T06:36:17.001Z,1025.01
2017-02-18T06:36:59.089Z,1025.08
2017-02-18T06:37:43.232Z,1025.16
2017-02-18T06:38:26.304Z,1025.13
2017-02-18T06:39:10.405Z,1025.1
2017-02-18T06:39:50.874Z,1025.12
2017-02-18T06:40:34.719Z,1025.06
2017-02-18T06:41:20.740Z,1025.1
2017-02-18T06:42:02.905Z,1025.09
2017-02-18T06:42:45.079Z,1025.07
2017-02-18T06:43:28.506Z,1025.09
2017-02-18T06:44:19.808Z,1025.11
2017-02-18T06:45:02.732Z,1025.12
2017-02-18T06:45:45.586Z,1025.17
2017-02-18T06:46:35.873Z,1025.08
2017-02-18T06:47:23.640Z,1025.14
2017-02-18T06:48:04.965Z,1025.13
2017-02-18T06:48:53.706Z,1025.17
2017-02-18T06:49:34.825Z,1025.08
2017-02-18T06:51:53.233Z,1025.1
2017-02-18T06:54:27.895Z,1025.13
2017-02-18T06:55:15.151Z,1025.11
2017-02-18T06:55:57.959Z,1025.17
2017-02-18T06:56:39.205Z,1025.14
2017-02-18T06:57:19.705Z,1025.17
2017-02-18T06:58:01.819Z,1025.14
2017-02-18T06:58:42.300Z,1025.08
2017-02-18T06:59:27.461Z,1025.2
2017-02-18T07:00:10.471Z,1025.15
2017-02-18T07:00:54.373Z,1025.14
2017-02-18T07:01:38.549Z,1025.13
2017-02-18T07:02:28.453Z,1025.18
2017-02-18T07:03:10.323Z,1025.14
2017-02-18T07:03:51.748Z,1025.13
2017-02-18T07:04:32.988Z,1025.14
2017-02-18T07:05:14.325Z,1025.12
2017-02-18T07:05:55.547Z,1025.16
2017-02-18T07:06:36.045Z,1025.11
2017-02-18T07:07:20.967Z,1025.12
2017-02-18T07:08:06.052Z,1025.11
2017-02-18T07:08:49.328Z,1025.14
2017-02-18T07:09:31.506Z,1025.09
2017-02-18T07:10:13.696Z,1025.1
2017-02-18T07:11:01.312Z,1025.13
2017-02-18T07:11:42.565Z,1025.1
2017-02-18T07:12:26.346Z,1025.12
2017-02-18T07:13:21.541Z,1025.13
2017-02-18T07:14:03.628Z,1025.16
2017-02-18T07:14:59.956Z,1025.09
2017-02-18T07:15:42.967Z,1025.15
2017-02-18T07:16:24.451Z,1025.17
2017-02-18T07:17:08.482Z,1025.13
2017-02-18T07:17:51.547Z,1025.11
2017-02-18T07:18:50.459Z,1025.09
2017-02-18T07:19:33.350Z,1025.11
2017-02-18T07:21:48.443Z,1025.05
2017-02-18T07:27:18.760Z,1025.04
2017-02-18T07:29:43.102Z,1025.05
2017-02-18T07:30:28.662Z,1025.05
2017-02-18T07:31:11.579Z,1025.07
2017-02-18T07:31:52.584Z,1025.05
2017-02-18T07:32:35.669Z,1025.02
2017-02-18T07:33:16.192Z,1025.03
2017-02-18T07:33:59.578Z,1025.03
2017-02-18T07:34:40.064Z,1025.03
2017-02-18T07:35:22.302Z,1025.03
2017-02-18T07:36:04.171Z,1025
2017-02-18T07:36:45.168Z,1025.04
2017-02-18T07:37:25.698Z,1024.99
2017-02-18T07:38:07.679Z,1024.98
2017-02-18T07:38:51.677Z,1024.98
2017-02-18T07:39:32.973Z,1025.05
2017-02-18T07:40:15.382Z,1025.03
2017-02-18T07:40:55.885Z,1025.02
2017-02-18T07:41:39.539Z,1025.06
2017-02-18T07:42:20.084Z,1025.08
2017-02-18T07:43:02.286Z,1025.07
2017-02-18T07:43:42.854Z,1025.04
2017-02-18T07:44:23.369Z,1025.05
2017-02-18T07:45:04.688Z,1025.09
2017-02-18T07:45:45.183Z,1025.12
2017-02-18T07:46:25.645Z,1025.08
2017-02-18T07:47:10.751Z,1025.07
2017-02-18T07:47:51.948Z,1025.07
2017-02-18T07:48:32.973Z,1025.08
2017-02-18T07:50:52.600Z,1025.08
2017-02-18T07:53:08.855Z,1025.04
2017-02-18T07:53:49.797Z,1025.05
2017-02-18T07:54:31.831Z,1025.07
2017-02-18T07:56:48.251Z,1025.07
2017-02-18T07:57:30.305Z,1025.13
2017-02-18T07:58:12.403Z,1025.1
2017-02-18T07:58:56.216Z,1025.11
2017-02-18T07:59:39.200Z,1025.11
2017-02-18T08:00:19.701Z,1025.12
2017-02-18T08:01:00.189Z,1025.14
2017-02-18T08:01:40.688Z,1025.1
2017-02-18T08:02:23.696Z,1025.13
2017-02-18T08:03:06.000Z,1025.12
2017-02-18T08:03:47.100Z,1025.1
2017-02-18T08:04:27.613Z,1025.11
2017-02-18T08:05:10.802Z,1025.09
2017-02-18T08:05:53.969Z,1025.09
2017-02-18T08:06:34.450Z,1025.07
2017-02-18T08:07:18.516Z,1025.06
2017-02-18T08:08:01.630Z,1025.13
2017-02-18T08:08:42.984Z,1025.08
2017-02-18T08:09:25.984Z,1025.15
2017-02-18T08:10:09.303Z,1025.13
2017-02-18T08:10:53.121Z,1025.12
2017-02-18T08:11:34.362Z,1025.14
2017-02-18T08:12:17.606Z,1025.11
2017-02-18T08:13:01.732Z,1025.13
2017-02-18T08:13:43.727Z,1025.15
2017-02-18T08:14:28.483Z,1025.15
2017-02-18T08:15:09.857Z,1025.19
2017-02-18T08:15:51.274Z,1025.11
2017-02-18T08:16:33.390Z,1025.12
2017-02-18T08:17:17.700Z,1025.12
2017-02-18T08:17:58.890Z,1025.16
2017-02-18T08:18:39.991Z,1025.15
2017-02-18T08:19:22.313Z,1025.18
2017-02-18T08:20:02.775Z,1025.17
2017-02-18T08:20:45.121Z,1025.18
2017-02-18T08:21:32.279Z,1025.19
2017-02-18T08:22:17.983Z,1025.16
2017-02-18T08:23:04.982Z,1025.1
2017-02-18T08:23:48.010Z,1025.15
2017-02-18T08:24:31.981Z,1025.17
2017-02-18T08:25:15.194Z,1025.14
2017-02-18T08:25:58.192Z,1025.16
2017-02-18T08:26:40.263Z,1025.16
2017-02-18T08:27:23.260Z,1025.15
2017-02-18T08:28:05.485Z,1025.14
2017-02-18T08:28:47.723Z,1025.19
2017-02-18T08:29:29.121Z,1025.2
2017-02-18T08:30:09.595Z,1025.18
2017-02-18T08:30:51.707Z,1025.16
2017-02-18T08:31:33.737Z,1025.17
2017-02-18T08:32:15.014Z,1025.17
2017-02-18T08:32:59.116Z,1025.13
2017-02-18T08:33:42.332Z,1025.15
2017-02-18T08:34:22.991Z,1025.2
2017-02-18T08:35:10.110Z,1025.17
2017-02-18T08:35:53.975Z,1025.17
2017-02-18T08:36:37.131Z,1025.22
2017-02-18T08:37:19.131Z,1025.2
2017-02-18T08:37:59.612Z,1025.2
2017-02-18T08:38:42.988Z,1025.17
2017-02-18T08:39:24.012Z,1025.19
2017-02-18T08:40:07.228Z,1025.17
2017-02-18T08:40:48.368Z,1025.19
2017-02-18T08:41:31.606Z,1025.18
2017-02-18T08:42:14.694Z,1025.24
2017-02-18T08:43:00.622Z,1025.18
2017-02-18T08:43:42.478Z,1025.18
2017-02-18T08:44:23.027Z,1025.23
2017-02-18T08:45:05.235Z,1025.21
2017-02-18T08:45:47.105Z,1025.21
2017-02-18T08:46:27.633Z,1025.23
2017-02-18T08:53:39.599Z,1025.25
2017-02-18T08:54:20.110Z,1025.29
2017-02-18T08:55:03.297Z,1025.23
2017-02-18T08:55:43.845Z,1025.29
2017-02-18T08:56:24.919Z,1025.24
2017-02-18T08:57:06.964Z,1025.28
2017-02-18T08:57:49.963Z,1025.24
2017-02-18T08:58:34.243Z,1025.24
2017-02-18T08:59:17.179Z,1025.24
2017-02-18T08:59:58.363Z,1025.27
2017-02-18T09:00:42.691Z,1025.28
2017-02-18T09:01:23.836Z,1025.31
2017-02-18T09:02:06.460Z,1025.27
2017-02-18T09:02:47.723Z,1025.29
2017-02-18T09:03:28.867Z,1025.28
2017-02-18T09:04:12.182Z,1025.28
2017-02-18T09:04:53.347Z,1025.3
2017-02-18T09:05:33.854Z,1025.32
2017-02-18T09:06:15.272Z,1025.29
2017-02-18T09:06:56.688Z,1025.31
2017-02-18T09:07:38.107Z,1025.27
2017-02-18T09:08:18.601Z,1025.28
2017-02-18T09:09:00.860Z,1025.3
2017-02-18T09:11:37.068Z,1025.35
2017-02-18T09:12:18.662Z,1025.33
2017-02-18T09:14:50.456Z,1025.3
2017-02-18T09:15:34.730Z,1025.28
2017-02-18T09:16:15.210Z,1025.29
2017-02-18T09:18:28.414Z,1025.31
2017-02-18T09:19:11.590Z,1025.25
2017-02-18T09:19:54.720Z,1025.28
2017-02-18T09:20:37.707Z,1025.33
2017-02-18T09:21:19.767Z,1025.28
2017-02-18T09:22:03.996Z,1025.36
2017-02-18T09:22:49.210Z,1025.33
2017-02-18T09:23:32.117Z,1025.3
2017-02-18T09:24:15.383Z,1025.36
2017-02-18T09:24:56.390Z,1025.39
2017-02-18T09:25:37.816Z,1025.35
2017-02-18T09:27:52.751Z,1025.33
2017-02-18T09:28:33.664Z,1025.33
2017-02-18T09:29:14.150Z,1025.38
2017-02-18T09:29:55.291Z,1025.37
2017-02-18T09:30:35.804Z,1025.45
2017-02-18T09:31:16.254Z,1025.42
2017-02-18T09:31:58.280Z,1025.38
2017-02-18T09:32:38.797Z,1025.36
2017-02-18T09:33:19.280Z,1025.36
2017-02-18T09:34:02.382Z,1025.4
2017-02-18T09:34:44.590Z,1025.39
2017-02-18T09:35:28.650Z,1025.37
2017-02-18T09:36:09.133Z,1025.32
2017-02-18T09:36:50.359Z,1025.47
2017-02-18T09:37:30.815Z,1025.36
2017-02-18T09:38:11.891Z,1025.33
2017-02-18T09:38:52.976Z,1025.32
2017-02-18T09:39:34.036Z,1025.32
2017-02-18T09:40:16.184Z,1025.32
2017-02-18T09:41:00.441Z,1025.32
2017-02-18T09:41:40.943Z,1025.33
2017-02-18T09:42:22.081Z,1025.33
2017-02-18T09:43:02.599Z,1025.34
2017-02-18T09:43:43.992Z,1025.33
2017-02-18T09:44:25.115Z,1025.4
2017-02-18T09:45:05.591Z,1025.36
2017-02-18T09:45:47.652Z,1025.41
2017-02-18T09:46:32.877Z,1025.43
2017-02-18T09:47:14.145Z,1025.4
2017-02-18T09:47:56.511Z,1025.45
2017-02-18T09:48:37.908Z,1025.47
2017-02-18T09:49:18.374Z,1025.47
2017-02-18T09:50:02.144Z,1025.52
2017-02-18T09:50:42.653Z,1025.51
2017-02-18T09:51:25.769Z,1025.48
2017-02-18T09:52:06.238Z,1025.52
2017-02-18T09:52:47.666Z,1025.47
2017-02-18T09:53:30.085Z,1025.44
2017-02-18T09:54:12.143Z,1025.44
2017-02-18T09:54:53.311Z,1025.54
2017-02-18T09:55:35.319Z,1025.43
2017-02-18T09:56:16.484Z,1025.46
2017-02-18T09:56:58.148Z,1025.51
2017-02-18T09:57:39.463Z,1025.44
2017-02-18T09:58:21.292Z,1025.55
2017-02-18T09:59:01.754Z,1025.48
2017-02-18T09:59:42.255Z,1025.5
2017-02-18T10:00:22.763Z,1025.43
2017-02-18T10:01:04.960Z,1025.48
2017-02-18T10:01:45.425Z,1025.51
2017-02-18T10:02:25.999Z,1025.43
2017-02-18T10:03:06.510Z,1025.43
2017-02-18T10:03:47.001Z,1025.42
2017-02-18T10:04:29.167Z,1025.45
2017-02-18T10:05:12.397Z,1025.45
2017-02-18T10:05:53.781Z,1025.5
2017-02-18T10:06:36.768Z,1025.41
2017-02-18T10:07:17.946Z,1025.42
2017-02-18T10:08:09.926Z,1025.38
2017-02-18T10:08:51.095Z,1025.41
2017-02-18T10:09:31.580Z,1025.41